createdAt,value
2022-08-26T00:00:00.000Z,69.47
2022-08-26T00:15:00.000Z,70.18
2022-08-26T00:30:00.000Z,70.06
2022-08-26T00:45:00.000Z,70.41
2022-08-26T01:00:00.000Z,70.85
2022-08-26T01:15:00.000Z,71.19
2022-08-26T01:30:00.000Z,71.44
2022-08-26T01:45:00.000Z,71.49
2022-08-26T02:00:00.000Z,71.57
2022-08-26T02:15:00.000Z,71.64
2022-08-26T02:30:00.000Z,71.66
2022-08-26T02:45:00.000Z,71.6
2022-08-26T03:00:00.000Z,72.03
2022-08-26T03:15:00.000Z,72.46
2022-08-26T03:30:00.000Z,72.54
2022-08-26T04:00:00.000Z,72.74
2022-08-26T04:00:00.000Z,72.81
2022-08-26T04:15:00.000Z,73.04
2022-08-26T04:30:00.000Z,72.97
2022-08-26T04:45:00.000Z,72.29
2022-08-26T05:00:00.000Z,72.28
2022-08-26T05:15:00.000Z,71.97
2022-08-26T05:30:00.000Z,71.56
2022-08-26T06:00:00.000Z,69.88
2022-08-26T06:00:00.000Z,68.29
2022-08-26T06:15:00.000Z,64.38
2022-08-26T06:30:00.000Z,60.72
2022-08-26T06:45:00.000Z,59.18
2022-08-26T07:00:00.000Z,57.47
2022-08-26T07:15:00.000Z,55.28
2022-08-26T07:45:00.000Z,48.03
2022-08-26T07:45:00.000Z,46.19
2022-08-26T08:00:00.000Z,48.84
2022-08-26T08:15:00.000Z,48.13
2022-08-26T08:30:00.000Z,44.18
2022-08-26T08:45:00.000Z,42.95
2022-08-26T09:00:00.000Z,40.08
2022-08-26T09:15:00.000Z,39.31
2022-08-26T09:30:00.000Z,39.42
2022-08-26T09:45:00.000Z,39.64
2022-08-26T10:00:00.000Z,39.43
2022-08-26T10:15:00.000Z,38.18
2022-08-26T10:30:00.000Z,39.58
2022-08-26T10:45:00.000Z,41.05
2022-08-26T11:00:00.000Z,41.45
2022-08-26T11:15:00.000Z,41.99
2022-08-26T11:30:00.000Z,42.4
2022-08-26T11:45:00.000Z,42.12
2022-08-26T12:00:00.000Z,41.25
2022-08-26T12:15:00.000Z,41.46
2022-08-26T12:30:00.000Z,40.34
2022-08-26T12:45:00.000Z,38.98
2022-08-26T13:00:00.000Z,37.28
2022-08-26T13:15:00.000Z,35.45
2022-08-26T13:30:00.000Z,35.31
2022-08-26T13:45:00.000Z,35.46
2022-08-26T14:00:00.000Z,37.02
2022-08-26T14:15:00.000Z,37.82
2022-08-26T14:30:00.000Z,38.24
2022-08-26T14:45:00.000Z,39.81
2022-08-26T15:00:00.000Z,41.49
2022-08-26T15:15:00.000Z,42.21
2022-08-26T15:30:00.000Z,45.11
2022-08-26T15:45:00.000Z,48.66
2022-08-26T16:00:00.000Z,50.19
2022-08-26T16:15:00.000Z,54.5
2022-08-26T16:30:00.000Z,57.88
2022-08-26T16:45:00.000Z,57.87
2022-08-26T17:00:00.000Z,57.92
2022-08-26T17:15:00.000Z,60.94
2022-08-26T17:30:00.000Z,64.48
2022-08-26T17:45:00.000Z,63.72
2022-08-26T18:00:00.000Z,63.8
2022-08-26T18:15:00.000Z,63.81
2022-08-26T18:30:00.000Z,63.86
2022-08-26T18:45:00.000Z,64.81
2022-08-26T19:00:00.000Z,67.11
2022-08-26T19:15:00.000Z,67.24
2022-08-26T19:30:00.000Z,66.17
2022-08-26T19:45:00.000Z,66.38
2022-08-26T20:00:00.000Z,67.08
2022-08-26T20:30:00.000Z,68.42
2022-08-26T20:30:00.000Z,68.65
2022-08-26T20:45:00.000Z,69.79
2022-08-26T21:00:00.000Z,70.99
2022-08-26T21:15:00.000Z,71.18
2022-08-26T21:30:00.000Z,68.08
2022-08-26T21:45:00.000Z,68.02
2022-08-26T22:00:00.000Z,66.02
2022-08-26T22:15:00.000Z,67.73
2022-08-26T22:30:00.000Z,69.46
2022-08-26T22:45:00.000Z,69.13
2022-08-26T23:15:00.000Z,69.41
2022-08-26T23:15:00.000Z,69.49
2022-08-26T23:30:00.000Z,70.46
2022-08-26T23:45:00.000Z,70.99
